Time;durP1;ratioP1;P1;durP2;ratioP2;P2;SDS_P1;SDS_P2;PMS_P1;PMS_P2;Temp;Humidity;BMP_temperature;BMP_pressure;BME280_temperature;BME280_humidity;BME280_pressure;Samples;Min_cycle;Max_cycle;Signal;HPM_P1;HPM_P2
2022/05/15 00:00:59;;;;;;;18.10;5.43;;;12.50;75.80;;;;;;4861119;29;20058;-82
2022/05/15 00:03:39;;;;;;;15.82;5.43;;;12.50;75.80;;;;;;4860586;29;20053;-81
2022/05/15 00:06:07;;;;;;;17.45;5.65;;;12.50;75.90;;;;;;4859631;29;20065;-82
2022/05/15 00:08:36;;;;;;;16.95;5.60;;;12.50;76.10;;;;;;4860832;29;20053;-82
2022/05/15 00:11:04;;;;;;;21.27;6.43;;;12.50;76.20;;;;;;4873225;29;20053;-81
2022/05/15 00:13:33;;;;;;;22.48;5.90;;;12.50;76.30;;;;;;4865480;29;20056;-81
2022/05/15 00:16:00;;;;;;;16.45;6.40;;;12.50;76.40;;;;;;4861228;29;20049;-82
2022/05/15 00:18:28;;;;;;;25.33;6.50;;;12.50;76.60;;;;;;4866397;29;20061;-82
2022/05/15 00:20:56;;;;;;;15.25;6.20;;;12.50;76.70;;;;;;4864834;29;20057;-82
2022/05/15 00:23:25;;;;;;;17.30;6.30;;;12.50;76.80;;;;;;4861169;29;20057;-83
2022/05/15 00:25:53;;;;;;;17.75;5.97;;;12.50;76.90;;;;;;4860597;29;20503;-83
2022/05/15 00:28:20;;;;;;;21.05;5.90;;;12.50;77.00;;;;;;4860613;29;20057;-82
2022/05/15 00:30:49;;;;;;;18.20;5.68;;;12.50;77.10;;;;;;4859506;29;20046;-82
2022/05/15 00:33:17;;;;;;;17.08;6.75;;;12.50;77.30;;;;;;4858150;29;20064;-82
2022/05/15 00:35:47;;;;;;;23.10;6.75;;;12.50;77.30;;;;;;4859958;29;20057;-82
2022/05/15 00:38:14;;;;;;;15.68;5.70;;;12.50;77.40;;;;;;4860314;29;20054;-82
2022/05/15 00:40:45;;;;;;;18.88;5.65;;;12.50;77.50;;;;;;4858984;29;20050;-84
2022/05/15 00:43:35;;;;;;;15.55;5.35;;;12.60;77.60;;;;;;4874506;29;20077;-83
2022/05/15 00:46:04;;;;;;;17.08;5.43;;;12.60;77.70;;;;;;4861169;29;20045;-83
2022/05/15 00:48:33;;;;;;;14.40;5.38;;;12.60;77.50;;;;;;4860481;29;20412;-83
2022/05/15 00:51:08;;;;;;;15.35;5.45;;;12.60;77.50;;;;;;4874626;29;20495;-84
2022/05/15 00:53:37;;;;;;;15.88;5.82;;;12.50;77.70;;;;;;4859582;29;20057;-83
2022/05/15 00:56:05;;;;;;;15.02;5.90;;;12.50;77.70;;;;;;4860622;29;20065;-83
2022/05/15 00:58:37;;;;;;;13.07;5.38;;;12.60;77.80;;;;;;4858997;29;20049;-81
2022/05/15 01:01:06;;;;;;;20.65;6.38;;;12.50;77.70;;;;;;4858084;29;20056;-81
2022/05/15 01:03:34;;;;;;;17.17;5.70;;;12.50;77.80;;;;;;4858499;29;20049;-83
2022/05/15 01:06:02;;;;;;;16.60;5.97;;;12.60;77.90;;;;;;4840668;29;20050;-82
2022/05/15 01:08:31;;;;;;;16.27;5.97;;;12.60;77.90;;;;;;4858528;29;20044;-82
2022/05/15 01:11:08;;;;;;;14.15;5.50;;;12.60;77.80;;;;;;4850768;29;20049;-81
2022/05/15 01:13:39;;;;;;;15.55;5.68;;;12.70;77.80;;;;;;4860265;29;20061;-81
2022/05/15 01:16:07;;;;;;;16.20;5.63;;;12.70;77.80;;;;;;4861452;29;20046;-83
2022/05/15 01:18:38;;;;;;;15.32;6.22;;;12.70;77.80;;;;;;4859530;29;20128;-80
2022/05/15 01:21:31;;;;;;;20.65;6.28;;;12.70;77.90;;;;;;4856460;29;20049;-81
2022/05/15 01:24:00;;;;;;;14.50;5.72;;;12.80;78.10;;;;;;4861094;29;20069;-81
2022/05/15 01:26:31;;;;;;;14.70;6.35;;;12.70;77.90;;;;;;4859109;29;20042;-79
2022/05/15 01:29:01;;;;;;;20.10;6.63;;;12.80;77.90;;;;;;4861105;29;20054;-84
2022/05/15 01:31:29;;;;;;;20.50;8.18;;;12.80;77.90;;;;;;4863759;29;20050;-81
2022/05/15 01:33:59;;;;;;;21.90;7.28;;;12.80;78.10;;;;;;4859309;29;20058;-82
2022/05/15 01:36:28;;;;;;;22.55;7.28;;;12.80;78.20;;;;;;4859908;29;20057;-82
2022/05/15 01:38:56;;;;;;;19.98;7.80;;;12.90;78.10;;;;;;4861857;29;20061;-82
2022/05/15 01:41:25;;;;;;;19.77;6.80;;;12.90;78.10;;;;;;4861483;29;20056;-82
2022/05/15 01:43:54;;;;;;;17.98;6.45;;;12.90;78.00;;;;;;4858348;29;20048;-83
2022/05/15 01:46:27;;;;;;;16.77;6.55;;;12.90;78.00;;;;;;4869695;29;20050;-82
2022/05/15 01:48:59;;;;;;;;;;;13.00;78.00;;;;;;4846016;29;20053;-82
2022/05/15 01:51:29;;;;;;;30.92;9.75;;;13.00;78.00;;;;;;4855826;29;19925;-82
2022/05/15 01:53:57;;;;;;;21.95;8.15;;;13.00;77.70;;;;;;4874888;29;20060;-83
2022/05/15 01:56:24;;;;;;;18.73;7.80;;;13.00;77.80;;;;;;4863480;29;20070;-83
2022/05/15 01:58:54;;;;;;;14.15;6.30;;;13.10;77.90;;;;;;4861741;29;20054;-82
2022/05/15 02:01:22;;;;;;;17.63;6.20;;;13.20;77.90;;;;;;4854888;29;20045;-82
2022/05/15 02:03:51;;;;;;;17.23;5.88;;;13.20;77.70;;;;;;4866978;29;20046;-82
2022/05/15 02:06:18;;;;;;;22.08;5.30;;;13.30;77.40;;;;;;4868781;29;20064;-83
2022/05/15 02:08:47;;;;;;;20.67;5.68;;;13.30;77.10;;;;;;4876491;29;20443;-83
2022/05/15 02:11:16;;;;;;;14.70;5.25;;;13.40;76.70;;;;;;4863106;29;20057;-82
2022/05/15 02:13:44;;;;;;;17.35;5.88;;;13.50;76.40;;;;;;4858723;29;20053;-82
2022/05/15 02:16:11;;;;;;;16.20;5.47;;;13.60;76.10;;;;;;4857080;29;20056;-81
2022/05/15 02:18:39;;;;;;;15.65;5.75;;;13.70;75.80;;;;;;4862639;29;20053;-83
2022/05/15 02:21:07;;;;;;;20.55;6.25;;;13.80;75.50;;;;;;4861412;29;20050;-82
2022/05/15 02:23:35;;;;;;;16.52;5.90;;;13.80;75.40;;;;;;4862287;29;20075;-83
2022/05/15 02:26:03;;;;;;;17.58;5.82;;;13.80;75.20;;;;;;4845671;29;20109;-83
2022/05/15 02:28:31;;;;;;;15.82;5.63;;;13.80;75.10;;;;;;4860081;29;20062;-83
2022/05/15 02:31:01;;;;;;;17.58;6.35;;;13.80;75.00;;;;;;4846477;29;20496;-83
2022/05/15 02:33:33;;;;;;;20.85;5.90;;;13.90;74.90;;;;;;4852630;29;20053;-82
2022/05/15 02:36:03;;;;;;;18.35;6.25;;;13.90;74.80;;;;;;4847360;29;20050;-83
2022/05/15 02:38:32;;;;;;;23.52;7.03;;;13.90;74.80;;;;;;4850994;29;20049;-82
2022/05/15 02:40:59;;;;;;;15.88;6.40;;;13.90;74.80;;;;;;4860308;29;20049;-82
2022/05/15 02:43:27;;;;;;;13.43;6.55;;;13.90;74.80;;;;;;4861801;29;20057;-82
2022/05/15 02:45:56;;;;;;;16.63;6.13;;;13.90;74.80;;;;;;4861972;29;20061;-82
2022/05/15 02:51:12;;;;;;;21.33;7.20;;;13.80;74.90;;;;;;4843985;29;20062;-82
2022/05/15 02:53:45;;;;;;;15.30;6.97;;;13.80;75.00;;;;;;4857355;29;20053;-83
2022/05/15 02:56:24;;;;;;;23.92;7.53;;;13.80;75.40;;;;;;4861823;29;20063;-83
2022/05/15 02:58:52;;;;;;;14.65;6.57;;;13.80;75.80;;;;;;4861900;29;20065;-82
2022/05/15 03:01:20;;;;;;;27.77;7.85;;;13.80;76.10;;;;;;4861579;29;20411;-82
2022/05/15 03:03:48;;;;;;;18.40;7.18;;;13.70;76.50;;;;;;4861280;29;20045;-82
2022/05/15 03:06:17;;;;;;;20.92;7.85;;;13.60;76.80;;;;;;4860455;29;20049;-82
2022/05/15 03:08:48;;;;;;;21.52;7.68;;;13.50;77.20;;;;;;4861638;29;20412;-83
2022/05/15 03:11:16;;;;;;;22.52;7.78;;;13.50;77.60;;;;;;4861298;29;20053;-83
2022/05/15 03:13:43;;;;;;;24.13;8.32;;;13.50;77.80;;;;;;4861346;29;20515;-83
2022/05/15 03:16:13;;;;;;;23.15;8.07;;;13.50;78.00;;;;;;4864821;29;20120;-84
2022/05/15 03:18:47;;;;;;;21.30;7.85;;;13.40;78.40;;;;;;4864522;29;20423;-85
2022/05/15 03:21:28;;;;;;;;;;;13.40;78.70;;;;;;4863012;29;20050;-83
2022/05/15 03:24:00;;;;;;;21.38;7.75;;;13.30;78.80;;;;;;4857755;29;19925;-84
2022/05/15 03:26:29;;;;;;;23.30;8.55;;;13.30;78.90;;;;;;4855615;29;20065;-83
2022/05/15 03:28:57;;;;;;;18.17;9.07;;;13.30;79.10;;;;;;4849801;29;20068;-82
2022/05/15 03:31:25;;;;;;;29.58;9.57;;;13.20;79.40;;;;;;4877499;29;20058;-82
2022/05/15 03:33:53;;;;;;;21.67;8.73;;;13.10;79.80;;;;;;4861760;29;20065;-84
2022/05/15 03:36:20;;;;;;;25.27;8.63;;;13.00;80.10;;;;;;4862001;29;20054;-83
2022/05/15 03:38:49;;;;;;;22.92;8.63;;;12.90;80.40;;;;;;4852847;29;20057;-85
2022/05/15 03:41:19;;;;;;;20.17;9.55;;;12.80;80.60;;;;;;4841797;29;20054;-83
2022/05/15 03:43:47;;;;;;;18.60;9.30;;;12.70;80.80;;;;;;4849687;29;20045;-84
2022/05/15 03:46:14;;;;;;;20.77;9.50;;;12.60;81.00;;;;;;4859661;29;20440;-84
2022/05/15 03:48:42;;;;;;;25.85;9.68;;;12.60;81.10;;;;;;4855945;29;20057;-84
2022/05/15 03:51:09;;;;;;;28.02;10.50;;;12.50;81.30;;;;;;4854992;29;20057;-84
2022/05/15 03:53:37;;;;;;;23.60;10.52;;;12.40;81.50;;;;;;4859954;29;20053;-84
2022/05/15 03:56:05;;;;;;;29.20;11.70;;;12.40;81.70;;;;;;4875143;29;20069;-84
2022/05/15 03:58:35;;;;;;;32.90;12.57;;;12.30;82.00;;;;;;4856442;29;20079;-84
2022/05/15 04:01:04;;;;;;;24.02;11.77;;;12.30;82.10;;;;;;4851342;29;20046;-82
2022/05/15 04:03:33;;;;;;;30.55;12.90;;;12.30;82.50;;;;;;4863193;29;20060;-82
2022/05/15 04:06:01;;;;;;;27.98;11.40;;;12.30;82.70;;;;;;4873526;29;20054;-81
2022/05/15 04:08:30;;;;;;;25.05;11.18;;;12.20;82.90;;;;;;4861420;29;20050;-84
2022/05/15 04:10:57;;;;;;;34.60;12.52;;;12.20;83.10;;;;;;4844262;29;20058;-85
2022/05/15 04:13:26;;;;;;;29.15;12.25;;;12.20;83.20;;;;;;4860238;29;20495;-83
2022/05/15 04:15:54;;;;;;;25.13;11.75;;;12.20;83.20;;;;;;4844190;29;20389;-85
2022/05/15 04:18:22;;;;;;;31.67;12.77;;;12.30;83.20;;;;;;4858870;29;20573;-84
2022/05/15 04:20:49;;;;;;;23.27;11.95;;;12.30;83.30;;;;;;4858834;29;20053;-84
2022/05/15 04:23:17;;;;;;;24.58;11.82;;;12.30;83.40;;;;;;4855880;29;20065;-84
2022/05/15 04:25:45;;;;;;;25.35;11.63;;;12.30;83.50;;;;;;4859035;29;20056;-84
2022/05/15 04:28:13;;;;;;;24.52;10.43;;;12.40;83.60;;;;;;4859112;29;20052;-84
2022/05/15 04:30:41;;;;;;;22.30;11.18;;;12.40;83.60;;;;;;4860533;29;20094;-83
2022/05/15 04:33:08;;;;;;;21.65;10.90;;;12.40;83.70;;;;;;4858755;29;20053;-83
2022/05/15 04:35:36;;;;;;;26.63;11.68;;;12.40;83.80;;;;;;4860439;29;20046;-83
2022/05/15 04:38:03;;;;;;;26.52;11.05;;;12.50;83.80;;;;;;4859854;29;20058;-84
2022/05/15 04:40:31;;;;;;;21.15;10.10;;;12.50;83.90;;;;;;4859955;29;20057;-84
2022/05/15 04:42:59;;;;;;;18.60;9.68;;;12.50;83.90;;;;;;4860092;29;20045;-84
2022/05/15 04:45:27;;;;;;;23.90;9.90;;;12.60;84.10;;;;;;4860650;29;20057;-83
2022/05/15 04:47:55;;;;;;;18.13;9.57;;;12.60;84.20;;;;;;4860465;29;20060;-84
2022/05/15 04:50:22;;;;;;;15.40;8.73;;;12.60;84.20;;;;;;4859935;29;20054;-84
2022/05/15 04:52:50;;;;;;;24.52;9.25;;;12.60;84.10;;;;;;4860038;29;20046;-84
2022/05/15 04:55:18;;;;;;;19.15;9.32;;;12.70;84.00;;;;;;4859964;29;20412;-84
2022/05/15 04:57:45;;;;;;;24.42;9.15;;;12.80;83.90;;;;;;4855633;29;20046;-84
2022/05/15 05:00:17;;;;;;;16.67;8.68;;;12.70;83.80;;;;;;4854255;29;20492;-84
2022/05/15 05:02:46;;;;;;;18.58;9.05;;;12.80;83.80;;;;;;4863547;29;20057;-84
2022/05/15 05:05:14;;;;;;;19.73;8.27;;;12.80;83.70;;;;;;4863347;29;20048;-84
2022/05/15 05:07:42;;;;;;;20.15;8.57;;;12.80;83.70;;;;;;4863349;29;20046;-85
2022/05/15 05:10:12;;;;;;;16.80;8.25;;;12.80;83.70;;;;;;4863153;29;20064;-85
2022/05/15 05:12:40;;;;;;;14.98;7.70;;;12.80;83.60;;;;;;4863479;29;20049;-84
2022/05/15 05:15:12;;;;;;;14.63;7.78;;;12.90;83.50;;;;;;4863625;29;20054;-84
2022/05/15 05:17:41;;;;;;;20.08;7.85;;;12.90;83.30;;;;;;4863178;29;20045;-84
2022/05/15 05:20:13;;;;;;;18.98;8.68;;;12.90;83.30;;;;;;4863278;29;20061;-84
2022/05/15 05:22:42;;;;;;;18.02;8.45;;;13.00;83.20;;;;;;4863258;29;20536;-84
2022/05/15 05:25:11;;;;;;;18.17;7.25;;;13.00;83.10;;;;;;4863004;29;20042;-83
2022/05/15 05:27:41;;;;;;;20.02;8.23;;;13.00;83.10;;;;;;4863483;29;20054;-84
2022/05/15 05:30:14;;;;;;;19.00;7.85;;;13.10;83.10;;;;;;4863329;29;20049;-84
2022/05/15 05:32:43;;;;;;;19.20;7.03;;;13.10;83.00;;;;;;4861748;29;20060;-84
2022/05/15 05:35:13;;;;;;;15.32;7.63;;;13.10;83.00;;;;;;4862110;29;20049;-83
2022/05/15 05:37:41;;;;;;;14.45;7.10;;;13.20;83.00;;;;;;4863981;29;20049;-83
2022/05/15 05:40:10;;;;;;;15.63;7.22;;;13.10;83.00;;;;;;4865531;29;20057;-83
2022/05/15 05:42:38;;;;;;;26.27;7.72;;;13.20;83.00;;;;;;4882524;29;20052;-83
2022/05/15 05:45:07;;;;;;;16.05;7.57;;;13.20;83.00;;;;;;4867170;29;20077;-84
2022/05/15 05:47:35;;;;;;;16.40;7.07;;;13.20;83.00;;;;;;4862609;29;20052;-84
2022/05/15 05:50:05;;;;;;;20.00;7.97;;;13.30;82.90;;;;;;4862707;29;20407;-84
2022/05/15 05:52:33;;;;;;;21.25;7.90;;;13.30;82.90;;;;;;4863606;29;20045;-84
2022/05/15 05:55:00;;;;;;;24.75;8.32;;;13.30;83.00;;;;;;4864228;29;20073;-84
2022/05/15 05:57:28;;;;;;;24.27;9.15;;;13.30;83.00;;;;;;4852746;29;20555;-84
2022/05/15 05:59:55;;;;;;;24.08;9.48;;;13.40;83.00;;;;;;4858084;29;20045;-84
2022/05/15 06:02:25;;;;;;;18.88;8.75;;;13.50;83.00;;;;;;4879577;29;20056;-84
2022/05/15 06:04:53;;;;;;;23.80;9.07;;;13.60;82.90;;;;;;4849155;29;20061;-84
2022/05/15 06:07:24;;;;;;;20.63;9.18;;;13.60;82.90;;;;;;4862508;29;20045;-84
2022/05/15 06:09:52;;;;;;;20.20;8.18;;;13.70;82.90;;;;;;4861642;29;20060;-84
2022/05/15 06:12:23;;;;;;;26.75;9.27;;;13.80;82.80;;;;;;4862685;29;20061;-84
2022/05/15 06:14:52;;;;;;;18.63;8.65;;;13.80;82.70;;;;;;4862784;29;20060;-84
2022/05/15 06:17:27;;;;;;;30.58;9.48;;;13.90;82.70;;;;;;4862221;29;20053;-84
2022/05/15 06:19:55;;;;;;;20.70;9.13;;;13.90;82.60;;;;;;4862035;29;20050;-84
2022/05/15 06:22:23;;;;;;;22.83;9.10;;;14.00;82.60;;;;;;4847401;29;20058;-84
2022/05/15 06:24:50;;;;;;;23.35;9.27;;;14.10;82.60;;;;;;4861831;29;20056;-84
2022/05/15 06:27:18;;;;;;;19.85;8.48;;;14.20;82.50;;;;;;4856313;29;20062;-83
2022/05/15 06:29:46;;;;;;;17.90;8.35;;;14.30;82.30;;;;;;4853134;29;20156;-84
2022/05/15 06:32:13;;;;;;;17.98;8.25;;;14.40;82.00;;;;;;4860735;29;20060;-84
2022/05/15 06:34:41;;;;;;;25.02;9.05;;;14.40;81.90;;;;;;4861898;29;20049;-83
2022/05/15 06:37:08;;;;;;;17.75;8.30;;;14.40;81.80;;;;;;4862330;29;20054;-85
2022/05/15 06:39:36;;;;;;;15.95;7.95;;;14.40;81.80;;;;;;4861833;29;20045;-85
2022/05/15 06:42:04;;;;;;;23.10;9.25;;;14.40;81.80;;;;;;4861100;29;20076;-85
2022/05/15 06:44:41;;;;;;;24.35;9.35;;;14.40;81.80;;;;;;4861373;29;20058;-85
2022/05/15 06:47:09;;;;;;;23.80;9.20;;;14.40;81.80;;;;;;4861732;29;20127;-84
2022/05/15 06:49:36;;;;;;;20.65;9.32;;;14.30;81.80;;;;;;4862081;29;20064;-84
2022/05/15 06:52:04;;;;;;;22.35;9.35;;;14.30;81.90;;;;;;4861680;29;20052;-84
2022/05/15 06:54:32;;;;;;;20.58;9.00;;;14.30;81.90;;;;;;4861917;29;20049;-84
2022/05/15 06:59:47;;;;;;;22.73;8.90;;;14.30;81.90;;;;;;4845252;29;20060;-84
2022/05/15 07:02:14;;;;;;;17.98;8.38;;;14.40;81.90;;;;;;4862093;29;20052;-83
2022/05/15 07:04:42;;;;;;;20.55;8.60;;;14.50;81.90;;;;;;4860283;29;20064;-83
2022/05/15 07:07:10;;;;;;;22.73;8.70;;;14.50;81.80;;;;;;4861475;29;20060;-84
2022/05/15 07:09:37;;;;;;;18.05;7.88;;;14.60;81.70;;;;;;4861983;29;20054;-84
2022/05/15 07:12:06;;;;;;;24.20;9.18;;;14.70;81.70;;;;;;4861594;29;20045;-83
2022/05/15 07:14:35;;;;;;;23.77;9.13;;;14.70;81.60;;;;;;4861566;29;20064;-84
2022/05/15 07:17:03;;;;;;;22.80;8.35;;;14.80;81.50;;;;;;4861028;29;20046;-83
2022/05/15 07:19:31;;;;;;;17.80;8.45;;;14.80;81.30;;;;;;4861480;29;20511;-84
2022/05/15 07:21:59;;;;;;;20.00;8.40;;;14.80;81.20;;;;;;4860566;29;20045;-85
2022/05/15 07:24:27;;;;;;;22.75;8.45;;;14.90;81.00;;;;;;4860989;29;20053;-84
2022/05/15 07:26:55;;;;;;;21.30;8.07;;;14.90;80.90;;;;;;4860060;29;20041;-85
2022/05/15 07:29:24;;;;;;;19.35;7.63;;;14.90;80.90;;;;;;4861086;29;20107;-85
2022/05/15 07:31:53;;;;;;;19.48;8.02;;;14.80;80.80;;;;;;4861350;29;20045;-85
2022/05/15 07:34:21;;;;;;;18.42;7.35;;;14.80;80.90;;;;;;4861144;29;20045;-85
2022/05/15 07:36:52;;;;;;;15.32;6.60;;;14.70;80.90;;;;;;4860778;29;20056;-84
2022/05/15 07:39:20;;;;;;;19.08;7.35;;;14.60;80.90;;;;;;4861940;29;20053;-83
2022/05/15 07:41:49;;;;;;;17.83;6.50;;;14.60;80.80;;;;;;4857368;29;20160;-83
2022/05/15 07:44:17;;;;;;;14.43;5.82;;;14.50;80.70;;;;;;4853562;29;20518;-83
2022/05/15 07:46:45;;;;;;;20.20;6.88;;;14.40;80.70;;;;;;4860141;29;20061;-83
2022/05/15 07:49:14;;;;;;;12.88;6.15;;;14.30;80.40;;;;;;4877658;29;20053;-83
2022/05/15 07:51:44;;;;;;;17.08;6.95;;;14.30;80.30;;;;;;4870551;29;20054;-84
2022/05/15 07:54:17;;;;;;;23.17;6.68;;;14.30;80.30;;;;;;4872026;29;20053;-82
2022/05/15 07:56:45;;;;;;;18.88;6.57;;;14.20;80.30;;;;;;4852335;29;20054;-83
2022/05/15 07:59:13;;;;;;;14.68;6.10;;;14.20;80.20;;;;;;4873310;29;20049;-84
2022/05/15 08:01:41;;;;;;;17.38;6.45;;;14.10;80.10;;;;;;4881347;29;20060;-83
2022/05/15 08:04:10;;;;;;;18.25;6.28;;;14.20;80.10;;;;;;4869165;29;20057;-84
2022/05/15 08:09:24;;;;;;;19.42;6.60;;;14.10;80.10;;;;;;4861219;29;20046;-83
2022/05/15 08:11:53;;;;;;;17.90;6.60;;;14.20;80.00;;;;;;4861225;29;20535;-82
2022/05/15 08:14:20;;;;;;;17.67;6.50;;;14.20;79.90;;;;;;4860838;29;20060;-83
2022/05/15 08:16:48;;;;;;;19.00;6.90;;;14.30;79.80;;;;;;4860949;29;20045;-83
2022/05/15 08:24:48;;;;;;;17.50;5.45;;;14.60;79.40;;;;;;4860520;29;20053;-84
2022/05/15 08:27:16;;;;;;;17.48;5.18;;;14.70;79.00;;;;;;4860221;29;20523;-83
2022/05/15 08:29:43;;;;;;;17.95;6.20;;;14.80;78.50;;;;;;4860022;29;20041;-84
2022/05/15 08:32:11;;;;;;;14.05;5.22;;;15.00;78.10;;;;;;4860003;29;20046;-84
2022/05/15 08:34:44;;;;;;;14.35;4.85;;;15.20;77.60;;;;;;4863336;29;20403;-84
2022/05/15 08:37:11;;;;;;;11.70;4.80;;;15.30;77.10;;;;;;4863731;29;20045;-83
2022/05/15 08:39:39;;;;;;;11.15;4.35;;;15.60;76.70;;;;;;4864126;29;20053;-84
2022/05/15 08:42:20;;;;;;;14.63;4.47;;;15.70;76.20;;;;;;4864214;29;20072;-84
2022/05/15 08:44:53;;;;;;;10.10;4.57;;;16.00;75.80;;;;;;4863052;29;20041;-84
2022/05/15 08:47:31;;;;;;;12.15;4.20;;;16.30;75.10;;;;;;4860092;29;20046;-85
2022/05/15 08:50:06;;;;;;;14.57;4.13;;;16.50;74.70;;;;;;4856047;29;20049;-84
2022/05/15 08:52:45;;;;;;;13.07;4.50;;;16.70;74.20;;;;;;4857316;29;20049;-88
2022/05/15 08:55:38;;;;;;;12.38;4.10;;;16.90;73.30;;;;;;4860666;29;20396;-85
2022/05/15 08:58:14;;;;;;;9.88;3.35;;;17.00;72.90;;;;;;4884234;29;20420;-85
2022/05/15 09:00:49;;;;;;;10.95;3.85;;;17.00;71.50;;;;;;4856202;29;20049;-85
2022/05/15 09:03:27;;;;;;;9.10;3.15;;;17.00;71.00;;;;;;4854450;29;20069;-86
2022/05/15 09:06:20;;;;;;;11.15;3.67;;;16.90;70.40;;;;;;4865702;29;20484;-87
2022/05/15 09:09:11;;;;;;;11.73;3.63;;;16.90;70.50;;;;;;4845726;29;20064;-86
2022/05/15 09:11:42;;;;;;;11.48;3.22;;;16.80;69.90;;;;;;4863352;29;20058;-88
2022/05/15 09:14:36;;;;;;;9.43;3.20;;;16.80;69.60;;;;;;4863656;29;20062;-89
2022/05/15 09:17:31;;;;;;;15.20;3.90;;;16.70;69.50;;;;;;4844759;29;20054;-92
2022/05/15 09:20:07;;;;;;;11.70;3.40;;;16.70;69.60;;;;;;4862308;29;20049;-90
2022/05/15 09:22:41;;;;;;;13.50;3.38;;;16.80;69.60;;;;;;4864713;29;20045;-90
2022/05/15 09:25:19;;;;;;;11.45;3.38;;;16.90;69.20;;;;;;4864193;29;20045;-89
2022/05/15 09:28:02;;;;;;;11.30;3.42;;;17.00;68.80;;;;;;4865368;29;20509;-89
2022/05/15 09:30:45;;;;;;;12.75;3.88;;;17.10;68.20;;;;;;4865341;29;20050;-88
2022/05/15 09:33:46;;;;;;;9.55;3.85;;;17.10;67.90;;;;;;4867419;29;20488;-87
2022/05/15 09:36:21;;;;;;;10.73;3.78;;;17.00;67.70;;;;;;4874103;29;20053;-89
2022/05/15 09:39:05;;;;;;;15.27;4.07;;;16.90;67.90;;;;;;4872444;29;20049;-90
2022/05/15 09:44:34;;;;;;;10.02;3.83;;;16.80;68.30;;;;;;4865896;29;20057;-89
2022/05/15 09:47:11;;;;;;;15.10;4.00;;;16.80;68.00;;;;;;4865000;29;20055;-89
2022/05/15 09:49:39;;;;;;;12.18;4.00;;;16.80;68.00;;;;;;4865205;29;20041;-89
2022/05/15 09:52:18;;;;;;;14.88;4.00;;;16.90;68.00;;;;;;4866890;29;20053;-89
2022/05/15 09:54:49;;;;;;;15.25;4.03;;;17.30;67.60;;;;;;4872042;29;20051;-90
2022/05/15 09:57:24;;;;;;;12.38;4.32;;;17.80;67.10;;;;;;4883127;29;20042;-90
2022/05/15 10:00:00;;;;;;;15.25;4.10;;;18.20;65.40;;;;;;4868315;29;20037;-89
2022/05/15 10:02:37;;;;;;;16.95;5.38;;;18.50;64.40;;;;;;4899333;29;20057;-89
2022/05/15 10:05:14;;;;;;;11.77;4.32;;;18.80;63.90;;;;;;4872484;29;20065;-88
2022/05/15 10:07:58;;;;;;;11.40;5.05;;;19.10;63.40;;;;;;4861196;29;20042;-89
2022/05/15 10:10:29;;;;;;;15.80;5.03;;;19.30;61.30;;;;;;4852578;29;20380;-90
2022/05/15 10:13:11;;;;;;;14.73;5.10;;;19.40;60.50;;;;;;4868025;29;20052;-89
2022/05/15 10:15:43;;;;;;;11.10;5.35;;;19.40;59.80;;;;;;4863904;29;20061;-89
2022/05/15 10:18:18;;;;;;;16.38;4.70;;;19.40;59.30;;;;;;4854493;29;20050;-89
2022/05/15 10:20:51;;;;;;;10.60;4.10;;;19.50;59.60;;;;;;4884089;29;20539;-89
2022/05/15 10:23:26;;;;;;;11.52;3.90;;;19.80;59.90;;;;;;4865249;29;20046;-89
2022/05/15 10:26:00;;;;;;;15.75;4.55;;;20.20;59.90;;;;;;4858351;29;20500;-89
2022/05/15 10:28:46;;;;;;;12.88;4.20;;;20.50;59.40;;;;;;4868362;29;20046;-87
2022/05/15 10:31:44;;;;;;;13.55;4.05;;;20.80;59.00;;;;;;4886945;29;20491;-90
2022/05/15 10:34:14;;;;;;;12.80;3.67;;;21.10;57.60;;;;;;4889911;29;20061;-90
2022/05/15 10:36:47;;;;;;;12.18;4.00;;;21.20;56.50;;;;;;4894233;29;20144;-89
2022/05/15 10:39:50;;;;;;;14.63;4.40;;;21.30;56.30;;;;;;4874471;29;20053;-89
2022/05/15 10:42:24;;;;;;;10.32;4.05;;;21.30;56.20;;;;;;4887163;29;20409;-90
2022/05/15 10:45:11;;;;;;;19.17;4.55;;;21.40;56.50;;;;;;4867590;29;20049;-89
2022/05/15 10:47:47;;;;;;;12.20;3.70;;;21.60;56.90;;;;;;4857170;29;20049;-89
2022/05/15 10:50:22;;;;;;;12.55;4.50;;;21.80;56.10;;;;;;4862194;29;20057;-89
2022/05/15 10:57:21;;;;;;;15.75;4.78;;;21.90;56.10;;;;;;4862704;29;20151;-89
2022/05/15 10:59:27;;;;;;;9.35;4.03;;;22.30;54.40;;;;;;4865838;29;20065;-88
2022/05/15 11:02:13;;;;;;;11.52;3.78;;;22.50;53.70;;;;;;4863506;29;20053;-88
2022/05/15 11:04:58;;;;;;;12.60;3.78;;;22.60;52.90;;;;;;4862238;29;20527;-87
2022/05/15 11:07:40;;;;;;;13.15;4.43;;;22.60;52.50;;;;;;4846280;29;20057;-88
2022/05/15 11:10:40;;;;;;;11.65;4.38;;;22.80;52.00;;;;;;4845930;29;20050;-88
2022/05/15 11:13:19;;;;;;;10.80;3.92;;;22.90;51.00;;;;;;4845252;29;20062;-87
2022/05/15 11:15:58;;;;;;;14.50;4.10;;;22.90;51.10;;;;;;4860311;29;20057;-88
2022/05/15 11:18:36;;;;;;;19.60;5.20;;;23.10;51.20;;;;;;4863245;29;20527;-86
2022/05/15 11:21:12;;;;;;;12.35;4.38;;;23.10;49.90;;;;;;4866805;29;20053;-88
2022/05/15 11:24:17;;;;;;;16.02;4.72;;;22.80;50.20;;;;;;4863938;29;20045;-88
2022/05/15 11:26:54;;;;;;;16.83;5.28;;;22.30;51.20;;;;;;4872868;29;20060;-88
2022/05/15 11:29:23;;;;;;;15.13;5.20;;;22.10;51.90;;;;;;4864238;29;20050;-88
2022/05/15 11:31:54;;;;;;;15.57;5.30;;;21.90;52.10;;;;;;4865848;29;20076;-89
2022/05/15 11:35:00;;;;;;;16.48;6.30;;;21.90;52.40;;;;;;4869991;29;20058;-86
2022/05/15 11:37:56;;;;;;;18.25;5.93;;;22.10;52.30;;;;;;4864746;29;20057;-88
2022/05/15 11:40:48;;;;;;;19.17;6.30;;;22.40;52.70;;;;;;4884716;29;20407;-88
2022/05/15 11:43:30;;;;;;;16.95;5.10;;;22.80;51.90;;;;;;4867525;29;20037;-88
2022/05/15 11:46:09;;;;;;;17.47;5.40;;;23.00;51.30;;;;;;4866735;29;20053;-88
2022/05/15 11:48:51;;;;;;;21.02;6.40;;;23.20;50.70;;;;;;4868113;29;20087;-87
2022/05/15 11:51:32;;;;;;;16.58;5.97;;;23.40;50.10;;;;;;4870348;29;20064;-88
2022/05/15 11:54:08;;;;;;;18.27;5.88;;;23.50;50.00;;;;;;4864636;29;20508;-84
2022/05/15 11:56:51;;;;;;;17.85;6.65;;;23.60;50.00;;;;;;4860140;29;20060;-85
2022/05/15 11:59:28;;;;;;;21.40;6.50;;;23.70;49.30;;;;;;4861681;29;20053;-86
2022/05/15 12:01:57;;;;;;;16.80;5.82;;;23.50;49.10;;;;;;4863426;29;20056;-86
2022/05/15 12:04:37;;;;;;;15.27;5.22;;;23.40;49.50;;;;;;4857379;29;20053;-83
2022/05/15 12:07:08;;;;;;;16.30;5.35;;;23.40;50.00;;;;;;4860397;29;20057;-92
2022/05/15 12:09:39;;;;;;;17.10;5.72;;;23.60;49.50;;;;;;4865162;29;20700;-86
2022/05/15 12:12:43;;;;;;;16.52;5.35;;;23.80;49.60;;;;;;4866490;29;20057;-87
2022/05/15 12:15:16;;;;;;;20.92;5.85;;;24.00;49.10;;;;;;4870709;29;20053;-84
2022/05/15 12:17:55;;;;;;;16.53;5.20;;;24.10;48.50;;;;;;4852123;29;20057;-89
2022/05/15 12:20:29;;;;;;;17.05;5.63;;;24.30;47.70;;;;;;4862294;29;20064;-82
2022/05/15 12:23:02;;;;;;;14.93;5.13;;;24.30;47.90;;;;;;4862119;29;20053;-83
2022/05/15 12:25:37;;;;;;;21.23;5.03;;;24.40;47.90;;;;;;4863076;29;20053;-82
2022/05/15 12:31:25;;;;;;;18.80;4.82;;;24.90;46.70;;;;;;4841518;29;20060;-83
2022/05/15 12:34:15;;;;;;;16.42;4.47;;;25.30;46.00;;;;;;4859532;29;20064;-84
2022/05/15 12:36:50;;;;;;;14.93;3.78;;;25.50;44.70;;;;;;4857955;29;20058;-85
2022/05/15 12:39:27;;;;;;;16.52;4.07;;;25.70;44.10;;;;;;4858704;29;20056;-85
2022/05/15 12:42:01;;;;;;;17.48;4.80;;;25.70;43.30;;;;;;4861193;29;20062;-84
2022/05/15 12:44:33;;;;;;;16.95;5.05;;;25.80;42.80;;;;;;4854895;29;20041;-83
2022/05/15 12:47:04;;;;;;;18.38;4.30;;;25.80;43.20;;;;;;4861950;29;20045;-85
2022/05/15 12:49:46;;;;;;;13.30;4.30;;;25.90;43.40;;;;;;4858425;29;20056;-84
2022/05/15 12:52:30;;;;;;;15.48;4.47;;;26.30;42.10;;;;;;4861372;29;20049;-85
2022/05/15 12:55:04;;;;;;;15.10;4.28;;;26.80;41.90;;;;;;4860727;29;20037;-84
2022/05/15 12:57:46;;;;;;;13.98;4.50;;;27.20;40.90;;;;;;4861895;29;20496;-84
2022/05/15 13:00:18;;;;;;;11.43;3.78;;;27.40;40.50;;;;;;4862011;29;20070;-84
2022/05/15 13:02:49;;;;;;;15.30;5.00;;;27.30;39.00;;;;;;4861190;29;20054;-87
2022/05/15 13:05:26;;;;;;;14.73;4.50;;;27.20;39.80;;;;;;4862928;29;20455;-89
2022/05/15 13:08:00;;;;;;;13.70;4.60;;;27.20;40.50;;;;;;4863651;29;20041;-90
2022/05/15 13:10:34;;;;;;;13.65;4.97;;;26.80;39.70;;;;;;4862365;29;20053;-91
2022/05/15 13:13:19;;;;;;;18.52;5.35;;;26.10;41.00;;;;;;4862428;29;20061;-89
2022/05/15 13:15:50;;;;;;;14.88;5.38;;;25.40;42.10;;;;;;4853378;29;20395;-91
2022/05/15 13:18:19;;;;;;;14.88;5.18;;;24.80;43.50;;;;;;4863053;29;20519;-79
2022/05/15 13:21:13;;;;;;;14.60;4.40;;;24.20;44.80;;;;;;4857981;29;20518;-81
2022/05/15 13:23:44;;;;;;;;;;;23.70;46.10;;;;;;4858982;29;20061;-75
2022/05/15 13:26:34;;;;;;;13.65;4.70;;;23.30;47.10;;;;;;4858222;29;19924;-74
2022/05/15 13:29:02;;;;;;;13.57;4.35;;;22.90;48.10;;;;;;4862271;29;20053;-74